Latest Weather Observations for Gayndah

IDQ60801

Issued at 8:31 am EST Sunday 21 December 2014 (issued every 30 minutes, with the page automatically refreshed every 10 minutes)

About weather observations | Map of weather stations | Latest weather observations for QLD | Other Formats
Station Details ID: 039066 Name: GAYNDAH AIRPORT Lat: -25.62 Lon: 151.62 Height: 110.9 m
Data from the previous 72 hours. | See also: Recent months at Gayndah
Date/Time
EST
Temp
°C
App
Temp
°C
Dew
Point
Rel
Hum
%
Delta-T
°C
Wind Press
QNH
hPa
Press
MSL
hPa
Rain
since 9 am
mm
Dir
 
Spd
km/h
Gust
km/h
Spd
kts
Gust
kts
21/08:30am 26.0 26.1 18.4 63 4.8 E 15 20 8 11 1017.3 1016.7 0.0
21/08:00am 26.0 27.2 19.9 69 4.0 E 13 24 7 13 1017.4 1016.8 0.0
21/07:30am 24.9 26.1 19.1 70 3.7 ENE 11 20 6 11 1017.2 1016.6 0.0
21/07:00am 24.3 25.5 19.1 73 3.3 ENE 11 17 6 9 1016.9 1016.3 0.0
21/06:30am 24.0 26.2 19.7 77 2.8 ENE 7 11 4 6 1016.5 1015.9 0.0
21/06:00am 23.5 25.0 19.8 80 2.4 ENE 11 15 6 8 1016.1 1015.5 0.0
21/05:30am 22.9 24.8 19.7 82 2.1 ENE 9 13 5 7 1015.6 1014.9 0.0
21/05:00am 22.8 23.8 19.4 81 2.2 ENE 13 17 7 9 1015.2 1014.5 0.0
21/04:30am 23.1 24.2 19.7 81 2.2 NE 13 17 7 9 1014.9 1014.2 0.0
21/04:00am 23.3 24.4 19.7 80 2.3 NE 13 17 7 9 1014.7 1014.0 0.0
21/03:30am 23.4 24.0 19.5 79 2.5 ENE 15 20 8 11 1014.5 1013.8 0.0
21/03:00am 23.6 23.5 19.5 78 2.6 ENE 19 24 10 13 1014.3 1013.6 0.0
21/02:30am 23.8 24.1 19.7 78 2.6 ENE 17 22 9 12 1014.4 1013.7 0.0
21/02:00am 23.7 25.6 19.8 79 2.5 ENE 9 15 5 8 1014.5 1013.8 0.0
21/01:30am 23.8 25.3 19.7 78 2.6 NE 11 17 6 9 1014.7 1014.0 0.0
21/01:00am 23.7 25.1 19.6 78 2.6 NE 11 15 6 8 1014.8 1014.1 0.0
21/12:30am 23.7 24.8 19.6 78 2.6 NE 13 17 7 9 1015.1 1014.4 0.0
21/12:00am 23.8 24.8 19.5 77 2.8 NE 13 19 7 10 1015.4 1014.7 0.0
 
Date/Time
EST
Temp
°C
App
Temp
°C
Dew
Point
Rel
Hum
%
Delta-T
°C
Wind Press
QNH
hPa
Press
MSL
hPa
Rain
since 9 am
mm
Dir
 
Spd
km/h
Gust
km/h
Spd
kts
Gust
kts
20/11:30pm 23.9 25.2 19.4 76 2.9 NE 11 17 6 9 1015.6 1014.9 0.0
20/11:00pm 24.0 24.5 19.3 75 3.0 NE 15 20 8 11 1015.7 1015.0 0.0
20/10:30pm 24.3 25.3 19.4 74 3.2 ENE 13 19 7 10 1015.8 1015.2 0.0
20/10:00pm 24.4 24.1 19.2 73 3.3 ENE 19 28 10 15 1015.7 1015.0 0.0
20/09:30pm 24.8 24.3 19.2 71 3.6 ENE 20 28 11 15 1015.6 1014.9 0.0
20/09:00pm 25.2 24.7 19.1 69 3.9 ENE 20 26 11 14 1015.2 1014.5 0.0
20/08:30pm 25.5 25.0 19.2 68 4.1 ENE 20 26 11 14 1014.5 1013.8 0.0
20/08:00pm 25.7 25.4 19.6 69 4.0 ENE 20 28 11 15 1014.3 1013.6 0.0
20/07:30pm 26.2 25.5 19.6 67 4.3 E 22 32 12 17 1013.6 1013.0 0.0
20/07:00pm 27.7 27.3 19.0 59 5.6 NE 19 28 10 15 1012.8 1012.2 0.0
20/06:30pm 28.5 27.1 18.9 56 6.2 NE 24 33 13 18 1012.2 1011.6 0.0
20/06:00pm 30.0 27.8 18.8 51 7.3 NE 28 35 15 19 1011.4 1010.8 0.0
20/05:30pm 31.0 30.9 17.0 43 8.9 ENE 13 17 7 9 1010.9 1010.3 0.0
20/05:00pm 31.4 31.4 16.2 40 9.6 NE 11 15 6 8 1010.6 1010.0 0.0
20/04:30pm 32.5 32.9 16.3 37 10.2 NNE 9 15 5 8 1010.4 1009.8 0.0
20/04:00pm 32.3 32.5 15.7 36 10.4 NE 9 15 5 8 1010.4 1009.8 0.0
20/03:30pm 32.1 32.1 15.1 35 10.5 NE 9 19 5 10 1010.8 1010.2 0.0
20/03:00pm 32.2 33.2 16.9 40 9.7 N 7 19 4 10 1011.1 1010.5 0.0
20/02:30pm 32.0 32.9 17.5 42 9.3 NNE 9 15 5 8 1011.5 1010.9 0.0
20/02:00pm 31.6 32.3 17.1 41 9.2 NNE 9 17 5 9 1011.9 1011.3 0.0
20/01:30pm 31.3 32.4 17.9 44 8.6 N 9 17 5 9 1012.2 1011.6 0.0
20/01:00pm 31.2 31.5 17.9 45 8.6 N 13 19 7 10 1012.6 1012.0 0.0
20/12:30pm 30.9 31.1 17.6 45 8.5 N 13 20 7 11 1013.1 1012.5 0.0
20/12:00pm 30.2 30.8 16.9 44 8.4 NNE 9 17 5 9 1013.6 1013.0 0.0
20/11:30am 29.6 30.1 17.4 47 7.8 NNE 11 20 6 11 1014.0 1013.4 0.0
20/11:00am 29.5 30.2 18.0 50 7.4 NNE 11 19 6 10 1014.5 1013.8 0.0
20/10:30am 29.5 30.5 19.5 55 6.5 NNE 13 17 7 9 1014.8 1014.1 0.0
20/10:00am 28.7 30.9 20.4 60 5.5 N 9 17 5 9 1014.9 1014.2 0.0
20/09:30am 28.1 29.3 19.1 58 5.8 NE 11 19 6 10 1015.0 1014.3 0.0
20/09:00am 28.3 29.1 19.0 57 6.0 ENE 13 20 7 11 1014.9 1014.2 0.2
20/08:30am 26.9 28.6 19.3 63 4.9 E 9 15 5 8 1014.8 1014.1 0.2
20/08:00am 26.3 28.0 19.4 66 4.5 ENE 9 17 5 9 1014.8 1014.1 0.2
20/07:30am 25.9 27.3 19.5 68 4.1 ENE 11 19 6 10 1014.7 1014.0 0.2
20/07:00am 25.4 26.6 20.0 72 3.5 ENE 13 17 7 9 1014.3 1013.6 0.2
20/06:30am 24.5 27.1 20.4 78 2.7 NE 7 11 4 6 1013.7 1013.1 0.2
20/06:00am 23.2 26.8 20.5 85 1.8 NE 2 6 1 3 1013.3 1012.7 0.2
20/05:30am 22.0 25.5 20.3 90 1.1 NNE 2 6 1 3 1012.8 1012.2 0.2
20/05:00am 21.3 24.3 20.1 93 0.8 N 4 4 2 2 1012.3 1011.7 0.2
20/04:30am 21.6 25.2 19.7 89 1.2 CALM 0 0 0 0 1012.0 1011.4 0.2
20/04:00am 21.4 25.1 19.9 91 1.0 CALM 0 0 0 0 1011.7 1011.1 0.2
20/03:30am 21.2 24.7 19.5 90 1.1 CALM 0 0 0 0 1011.6 1011.0 0.2
20/03:00am 21.2 24.7 19.5 90 1.1 CALM 0 4 0 2 1011.6 1011.0 0.2
20/02:30am 21.4 24.9 19.5 89 1.2 CALM 0 0 0 0 1011.3 1010.7 0.2
20/02:00am 21.4 24.8 19.3 88 1.3 CALM 0 2 0 1 1011.7 1011.1 0.2
20/01:30am 21.8 25.2 19.4 86 1.5 CALM 0 0 0 0 1011.4 1010.8 0.2
20/01:00am 22.0 25.6 19.7 87 1.5 CALM 0 0 0 0 1011.6 1011.0 0.2
20/12:30am 22.3 25.7 19.3 83 1.9 CALM 0 0 0 0 1011.7 1011.1 0.2
20/12:00am 22.2 25.0 19.6 85 1.7 SE 4 4 2 2 1011.9 1011.3 0.2
 
Date/Time
EST
Temp
°C
App
Temp
°C
Dew
Point
Rel
Hum
%
Delta-T
°C
Wind Press
QNH
hPa
Press
MSL
hPa
Rain
since 9 am
mm
Dir
 
Spd
km/h
Gust
km/h
Spd
kts
Gust
kts
19/11:30pm 22.4 24.7 19.4 83 1.9 SE 6 6 3 3 1012.2 1011.6 0.2
19/11:00pm 22.6 25.4 19.6 83 1.9 ESE 4 6 2 3 1012.5 1011.9 0.2
19/10:30pm 23.0 26.3 19.2 79 2.4 CALM 0 0 0 0 1012.5 1011.9 0.2
19/10:00pm 23.4 25.1 18.5 74 3.1 ESE 7 9 4 5 1012.4 1011.8 0.2
19/09:30pm 24.2 27.2 19.3 74 3.1 E 2 4 1 2 1012.1 1011.5 0.2
19/09:00pm 24.2 26.6 18.8 72 3.4 NNE 4 6 2 3 1011.7 1011.1 0.2
19/08:30pm 24.8 27.9 18.7 69 3.9 CALM 0 0 0 0 1011.4 1010.8 0.2
19/08:00pm 25.6 28.5 18.3 64 4.6 CALM 0 2 0 1 1011.3 1010.7 0.2
19/07:30pm 27.3 28.8 16.6 52 6.7 W 4 6 2 3 1011.2 1010.6 0.2
19/07:00pm 28.9 29.7 14.7 42 8.7 WSW 4 6 2 3 1010.9 1010.3 0.2
19/06:30pm 29.8 30.3 15.1 40 9.0 SW 6 9 3 5 1010.6 1010.0 0.2
19/06:00pm 31.4 30.4 12.2 30 11.4 SSW 9 15 5 8 1010.3 1009.7 0.2
19/05:30pm 31.9 31.8 15.0 36 10.5 W 9 15 5 8 1010.0 1009.4 0.2
19/05:00pm 31.8 33.2 17.7 43 9.1 WNW 7 13 4 7 1009.7 1009.1 0.2
19/04:30pm 31.6 32.7 17.9 44 8.8 W 9 17 5 9 1009.6 1009.0 0.2
19/04:00pm 31.5 32.6 17.0 41 9.2 W 7 13 4 7 1009.7 1009.1 0.2
19/03:30pm 30.6 32.0 18.7 49 7.7 NW 9 15 5 8 1009.8 1009.2 0.2
19/03:00pm 30.7 32.9 19.1 50 7.6 NW 6 15 3 8 1010.0 1009.4 0.2
19/02:30pm 30.3 32.0 19.3 51 7.2 NW 9 15 5 8 1010.4 1009.8 0.2
19/02:00pm 29.4 30.9 18.8 53 6.9 WNW 9 15 5 8 1010.8 1010.2 0.2
19/01:30pm 28.8 31.0 19.1 55 6.3 SW 6 17 3 9 1011.3 1010.7 0.2
19/01:00pm 28.1 30.3 19.1 58 5.8 WNW 6 13 3 7 1011.7 1011.1 0.2
19/12:30pm 27.2 28.9 19.3 62 5.1 W 9 17 5 9 1012.1 1011.5 0.2
19/12:00pm 26.9 29.5 20.5 68 4.2 WNW 7 15 4 8 1012.6 1012.0 0.2
19/11:30am 25.7 27.8 19.3 67 4.1 SW 7 15 4 8 1013.0 1012.4 0.2
19/11:00am 25.1 27.3 19.5 71 3.6 W 7 15 4 8 1013.1 1012.5 0.2
19/10:30am 24.6 27.2 19.2 72 3.5 SW 4 11 2 6 1013.3 1012.7 0.0
19/10:00am 23.6 26.0 18.9 75 3.0 WSW 4 7 2 4 1013.4 1012.8 0.0
19/09:30am 22.6 24.8 18.4 77 2.6 W 4 7 2 4 1013.6 1013.0 0.0
19/09:00am 22.2 25.1 19.0 82 2.0 NW 2 6 1 3 1013.6 1013.0 8.2
19/08:30am 21.6 24.2 19.3 87 1.5 NW 4 7 2 4 1013.5 1012.9 8.2
19/08:00am 21.3 24.1 19.6 90 1.1 N 4 6 2 3 1013.5 1012.9 8.2
19/07:30am 21.2 23.7 19.8 92 0.9 NNE 6 7 3 4 1013.1 1012.5 8.2
19/07:00am 21.2 23.9 20.2 94 0.6 NNW 6 7 3 4 1013.2 1012.6 8.0
19/06:30am 21.5 24.3 20.5 94 0.6 W 6 9 3 5 1013.3 1012.7 5.6
19/06:00am 21.3 24.7 20.1 93 0.8 WSW 2 4 1 2 1012.6 1012.0 5.4
19/05:30am 21.3 24.7 20.1 93 0.8 W 2 4 1 2 1012.4 1011.8 5.2
19/05:00am 21.4 25.1 20.0 92 0.9 CALM 0 0 0 0 1012.3 1011.7 4.8
19/04:30am 21.3 24.1 19.6 90 1.1 S 4 7 2 4 1012.2 1011.6 4.2
19/04:00am 21.5 24.6 20.3 93 0.8 SW 4 9 2 5 1012.5 1011.9 4.0
19/03:30am 21.6 24.8 20.6 94 0.6 SW 4 6 2 3 1012.4 1011.8 3.6
19/03:00am 21.7 24.2 20.3 92 0.9 SW 7 9 4 5 1012.4 1011.8 2.8
19/02:30am 21.8 24.5 20.3 91 1.0 SW 6 9 3 5 1012.5 1011.9 2.8
19/02:00am 21.9 24.2 19.8 88 1.3 SSW 7 11 4 6 1012.4 1011.8 2.6
19/01:30am 22.2 24.5 19.9 87 1.5 SW 7 13 4 7 1012.9 1012.3 2.2
19/01:00am 22.5 25.6 21.0 91 1.0 SW 6 7 3 4 1013.1 1012.5 1.8
19/12:30am 22.6 25.1 20.3 87 1.5 SSW 7 11 4 6 1013.3 1012.7 1.6
19/12:00am 22.7 24.7 20.0 85 1.7 SW 9 17 5 9 1013.5 1012.9 1.6
 
Date/Time
EST
Temp
°C
App
Temp
°C
Dew
Point
Rel
Hum
%
Delta-T
°C
Wind Press
QNH
hPa
Press
MSL
hPa
Rain
since 9 am
mm
Dir
 
Spd
km/h
Gust
km/h
Spd
kts
Gust
kts
18/11:30pm 23.9 26.0 21.0 84 1.9 SW 11 19 6 10 1013.9 1013.3 1.0
18/11:00pm 24.1 27.7 22.0 88 1.4 WNW 6 7 3 4 1013.8 1013.2 1.0
18/10:30pm 24.1 28.2 22.2 89 1.3 N 4 7 2 4 1013.4 1012.8 0.8
18/10:00pm 23.9 27.3 22.0 89 1.3 NNE 7 11 4 6 1013.0 1012.4 0.8
18/09:30pm 24.2 27.4 21.7 86 1.7 NNE 7 9 4 5 1013.1 1012.5 0.8
18/09:00pm 24.4 27.9 21.1 82 2.2 NW 4 6 2 3 1012.6 1012.0 0.8
18/08:30pm 24.6 28.8 20.9 80 2.4 CALM 0 2 0 1 1012.2 1011.6 0.8
18/08:00pm 24.3 27.6 21.4 84 1.9 SW 6 9 3 5 1011.8 1011.2 0.8
18/07:30pm 24.6 26.7 20.9 80 2.4 WSW 11 17 6 9 1011.7 1011.1 0.8
18/07:00pm 24.6 26.4 21.1 81 2.3 SSE 13 22 7 12 1010.6 1010.0 0.8
18/06:30pm 24.0 23.0 21.3 85 1.8 SSE 28 44 15 24 1009.8 1009.2 0.8
18/06:00pm 24.7 22.1 20.6 78 2.7 SSW 35 56 19 30 1009.0 1008.4 0.0
18/05:50pm 29.0 29.0 19.0 54 6.5 E 17 54 9 29 1009.3 1008.7 0.0
18/05:30pm 32.1 34.1 20.7 51 7.6 NE 11 15 6 8 1007.3 1006.6 0.0
18/05:00pm 32.3 33.4 20.5 49 7.9 NE 15 22 8 12 1007.1 1006.4 0.0
18/04:30pm 33.0 33.5 20.9 49 8.2 NE 19 26 10 14 1006.6 1005.9 0.0
18/04:00pm 35.4 35.0 16.2 32 12.3 NNW 13 17 7 9 1006.1 1005.4 0.0
18/03:30pm 35.8 35.9 16.5 31 12.4 NNW 11 19 6 10 1005.6 1004.9 0.0
18/03:00pm 36.4 35.2 16.0 29 13.0 NNW 17 28 9 15 1005.7 1005.0 0.0
18/02:30pm 36.3 35.4 15.9 29 13.0 N 15 26 8 14 1005.8 1005.1 0.0
18/02:00pm 36.0 34.3 14.6 27 13.4 NNW 17 24 9 13 1006.6 1005.9 0.0
18/01:30pm 35.9 35.1 15.1 29 13.1 NNW 13 24 7 13 1007.3 1006.6 0.0
18/01:00pm 35.7 36.2 17.4 33 11.9 N 11 20 6 11 1007.9 1007.3 0.0
18/12:30pm 35.3 36.9 20.0 40 10.2 NNE 11 19 6 10 1008.7 1008.1 0.0
18/12:00pm 33.4 34.9 19.8 44 9.1 NNE 11 19 6 10 1009.3 1008.7 0.0
18/11:30am 32.8 34.2 18.6 43 9.3 N 9 20 5 11 1009.8 1009.2 0.0
18/11:00am 32.6 34.2 19.1 44 8.9 NNE 9 20 5 11 1010.2 1009.6 0.0
18/10:30am 32.1 33.8 19.4 47 8.4 NNE 9 19 5 10 1010.7 1010.1 0.0
18/10:00am 31.0 32.9 19.7 51 7.5 NNE 9 17 5 9 1011.0 1010.4 0.0
18/09:30am 30.7 33.3 21.2 57 6.4 NE 9 15 5 8 1011.2 1010.6 0.0
18/09:00am 29.7 31.7 20.0 56 6.4 NE 9 19 5 10 1011.5 1010.9 0.0

Other Formats:

Comma delimited format used in spreadsheet applications
http://www.bom.gov.au/fwo/IDQ60801/IDQ60801.95543.axf

JavaScript Object Notation format (JSON) in row-major order
http://www.bom.gov.au/fwo/IDQ60801/IDQ60801.95543.json